Thunder radar more information blitzortung!


Radar de pluja more information rain snow radar


Visita la nostra xarxa de llocs de meteo:

Template documentation
and downloads

And another site



No particular awareness of the weather is required.    There are no Weather-warnings

Pagina Historial Weather Underground text

Diari Resum January 16, 2016 Unitats:  Mètric    Imperial   Tant
« Previous Dia
SegĂźent Dia »
Diari Setmana Mensual Anual Personalitzada
  Maxima: Minima: Media:
Temperatura: -17.8 °C -15.8 °C -13 °C
Punt de rosada: -17.8 °C -26.3 °C -25.1 °C
Humitat: Humidity % 15 % 20 %
Wind Speed: 0 km/h 0 km/h 10.5 km/h
RĂ fegues de vent: 0 km/h - -
Vent:- - SW
Pression baro: 0 hPa 34703.1 hPa -
Precipitacions: 0 mm    
Historical Graphs
 
 
Dades de taula per January 16, 2016
Temps Temperatura Punt de rosada Pression baro Vent Wind Speed RĂ fegues de vent Humitat Rainfall Rate (Hourly)
-17.8 °C -17.8 °C 0 hPa Calm     Humidity % 0 mm
11:39 -12.7 °C -23 °C 34740.4 hPa SSW 19.6 km/h 19.6 km/h 26 % 0 mm
11:44 -12.7 °C -23.2 °C 34740.4 hPa NNW 15 km/h 15 km/h 25 % 0 mm
11:49 -12.6 °C -23.4 °C 34740.4 hPa North 15 km/h 15 km/h 24 % 0 mm
11:54 -12.4 °C -23.3 °C 34740.4 hPa ENE 10.3 km/h 10.3 km/h 24 % 0 mm
11:59 -12.3 °C -23.2 °C 34740.4 hPa NW 9 km/h 9 km/h 24 % 0 mm
12:04 -12.3 °C -23.6 °C 34740.4 hPa SW 14 km/h 14 km/h 23 % 0 mm
12:09 -12.2 °C -23.4 °C 34740.4 hPa WNW 15 km/h 15 km/h 23 % 0 mm
12:14 -12.2 °C -23.4 °C 34740.4 hPa SSE 6.3 km/h 6.3 km/h 23 % 0 mm
12:24 -12 °C -23.9 °C 34703.1 hPa SW 12.2 km/h 12.2 km/h 21 % 0 mm
12:29 -11.9 °C -24.2 °C 34703.1 hPa NNE 17.9 km/h 17.9 km/h 20 % 0 mm
12:34 -11.8 °C -23.7 °C 34703.1 hPa SSW 11.9 km/h 11.9 km/h 21 % 0 mm
12:39 -11.7 °C -23.7 °C 34740.4 hPa WSW 15 km/h 15 km/h 21 % 0 mm
12:44 -11.6 °C -23.9 °C 34740.4 hPa NNW 15 km/h 15 km/h 20 % 0 mm
12:49 -11.6 °C -24.3 °C 34740.4 hPa West 15.6 km/h 15.6 km/h 19 % 0 mm
12:54 -11.6 °C -24.6 °C 34740.4 hPa SW 15 km/h 15 km/h 18 % 0 mm
12:59 -11.5 °C -24.2 °C 34740.4 hPa SW 11.9 km/h 11.9 km/h 19 % 0 mm
13:04 -11.5 °C -24.2 °C 34740.4 hPa WSW 9 km/h 9 km/h 19 % 0 mm
13:09 -11.5 °C -24.2 °C 34740.4 hPa NNE 9 km/h 9 km/h 19 % 0 mm
13:14 -11.5 °C -23.8 °C 34740.4 hPa ESE 6 km/h 6 km/h 20 % 0 mm
13:19 -11.4 °C -23.8 °C 34740.4 hPa NE 11.9 km/h 11.9 km/h 20 % 0 mm
13:24 -11.4 °C -24.1 °C 34740.4 hPa West 15 km/h 15 km/h 19 % 0 mm
13:29 -11.4 °C -24.1 °C 34740.4 hPa SE 15 km/h 15 km/h 19 % 0 mm
13:34 -11.4 °C -24.1 °C 34740.4 hPa NW 12.2 km/h 12.2 km/h 19 % 0 mm
13:39 -11.4 °C -24.1 °C 34740.4 hPa ENE 11.9 km/h 11.9 km/h 19 % 0 mm
13:44 -11.3 °C -24 °C 34740.4 hPa NNW 9 km/h 9 km/h 19 % 0 mm
13:49 -11.2 °C -24.7 °C 34740.4 hPa West 15 km/h 15 km/h 17 % 0 mm
13:54 -11.2 °C -24.3 °C 34774.2 hPa WNW 11.9 km/h 11.9 km/h 18 % 0 mm
13:59 -11.3 °C -24.4 °C 34774.2 hPa ESE 17.9 km/h 17.9 km/h 18 % 0 mm
14:04 -11.3 °C -24.4 °C 34774.2 hPa SW 9.3 km/h 9.3 km/h 18 % 0 mm
14:09 -11.3 °C -24.8 °C 34740.4 hPa ESE 17.9 km/h 17.9 km/h 17 % 0 mm
14:14 -11.3 °C -24.8 °C 34740.4 hPa ESE 20.9 km/h 20.9 km/h 17 % 0 mm
14:19 -11.4 °C -25.3 °C 34740.4 hPa WSW 23.8 km/h 23.8 km/h 16 % 0 mm
14:24 -11.5 °C -25.4 °C 34740.4 hPa NNW 15 km/h 15 km/h 16 % 0 mm
14:29 -11.4 °C -25.3 °C 34740.4 hPa SW 23.8 km/h 23.8 km/h 16 % 0 mm
14:34 -11.5 °C -25.4 °C 34740.4 hPa WNW 15 km/h 15 km/h 16 % 0 mm
14:39 -11.5 °C -24.9 °C 34740.4 hPa WSW 11.9 km/h 12.2 km/h 17 % 0 mm
14:44 -11.4 °C -25.3 °C 34740.4 hPa WSW 15.6 km/h 15.6 km/h 16 % 0 mm
14:49 -11.5 °C -25.4 °C 34740.4 hPa NNE 9 km/h 9 km/h 16 % 0 mm
14:54 -11.5 °C -25.4 °C 34740.4 hPa South 15 km/h 15 km/h 16 % 0 mm
14:59 -11.6 °C -25 °C 34740.4 hPa WSW 17.9 km/h 17.9 km/h 17 % 0 mm
15:04 -11.5 °C -25.4 °C 34740.4 hPa NNE 15 km/h 15 km/h 16 % 0 mm
15:09 -11.4 °C -24.9 °C 34740.4 hPa NNE 15 km/h 15 km/h 17 % 0 mm
15:14 -11.3 °C -25.2 °C 34740.4 hPa ESE 6.8 km/h 6.8 km/h 16 % 0 mm
15:19 -11.3 °C -25.2 °C 34740.4 hPa WSW 20.9 km/h 20.9 km/h 16 % 0 mm
15:24 -11.3 °C -25.2 °C 34740.4 hPa NW 15 km/h 15 km/h 16 % 0 mm
15:29 -11.3 °C -25.2 °C 34740.4 hPa NW 15 km/h 15 km/h 16 % 0 mm
15:34 -11.3 °C -25.2 °C 34740.4 hPa WSW 20.9 km/h 20.9 km/h 16 % 0 mm
15:39 -11.3 °C -25.2 °C 34740.4 hPa SW 15 km/h 15 km/h 16 % 0 mm
15:44 -11.2 °C -25.2 °C 34740.4 hPa WSW 11.9 km/h 11.9 km/h 16 % 0 mm
15:49 -11.3 °C -25.7 °C 34740.4 hPa SW 20.9 km/h 20.9 km/h 15 % 0 mm
15:54 -11.3 °C -25.7 °C 34740.4 hPa WSW 11.6 km/h 11.6 km/h 15 % 0 mm
15:59 -11.4 °C -25.3 °C 34740.4 hPa NNW 20.9 km/h 20.9 km/h 16 % 0 mm
16:04 -11.3 °C -25.2 °C 34740.4 hPa WNW 11.9 km/h 11.9 km/h 16 % 0 mm
16:09 -11.3 °C -25.2 °C 34740.4 hPa SW 8.5 km/h 8.5 km/h 16 % 0 mm
16:14 -11.3 °C -25.2 °C 34740.4 hPa WSW 11.9 km/h 11.9 km/h 16 % 0 mm
16:19 -11.2 °C -25.2 °C 34740.4 hPa West 11.9 km/h 11.9 km/h 16 % 0 mm
16:24 -11.1 °C -24.6 °C 34740.4 hPa SW 6 km/h 6 km/h 17 % 0 mm
16:29 -11.3 °C -25.2 °C 34740.4 hPa WSW 20.9 km/h 20.9 km/h 16 % 0 mm
16:34 -11.3 °C -25.2 °C 34740.4 hPa WSW 9.8 km/h 9.8 km/h 16 % 0 mm
16:39 -11.3 °C -24.8 °C 34740.4 hPa SW 9.3 km/h 9.3 km/h 17 % 0 mm
16:44 -11.3 °C -24.8 °C 34740.4 hPa SW 11.9 km/h 11.9 km/h 17 % 0 mm
16:49 -11.4 °C -24.9 °C 34740.4 hPa WNW 9 km/h 9 km/h 17 % 0 mm
16:54 -11.4 °C -24.9 °C 34740.4 hPa NW 9 km/h 9 km/h 17 % 0 mm
16:59 -11.6 °C -25 °C 34740.4 hPa WSW 9 km/h 9 km/h 17 % 0 mm
17:04 -11.6 °C -25.1 °C 34740.4 hPa SSW 15 km/h 15 km/h 17 % 0 mm
17:09 -11.8 °C -25.2 °C 34740.4 hPa West 11.9 km/h 11.9 km/h 17 % 0 mm
17:14 -11.8 °C -25.2 °C 34740.4 hPa SSW 15 km/h 15 km/h 17 % 0 mm
17:19 -12 °C -25.4 °C 34740.4 hPa WSW 11.9 km/h 11.9 km/h 17 % 0 mm
17:24 -12.1 °C -25.4 °C 34740.4 hPa SSW 15.6 km/h 15.6 km/h 17 % 0 mm
17:29 -12.2 °C -25.2 °C 34740.4 hPa SE 15 km/h 15 km/h 18 % 0 mm
17:34 -12.4 °C -25.3 °C 34740.4 hPa WSW 15 km/h 15 km/h 18 % 0 mm
17:39 -12.6 °C -25.5 °C 34740.4 hPa WSW 8.5 km/h 8.5 km/h 18 % 0 mm
17:44 -12.7 °C -25.6 °C 34740.4 hPa WSW 17.9 km/h 17.9 km/h 18 % 0 mm
17:49 -12.8 °C -25.6 °C 34740.4 hPa West 12.7 km/h 12.7 km/h 18 % 0 mm
17:54 -12.9 °C -25.7 °C 34774.2 hPa SW 15 km/h 15 km/h 18 % 0 mm
17:59 -12.9 °C -25.7 °C 34774.2 hPa WNW 14.5 km/h 14.5 km/h 18 % 0 mm
18:04 -13.1 °C -25.8 °C 34774.2 hPa SW 17.9 km/h 17.9 km/h 18 % 0 mm
18:09 -13.1 °C -25.5 °C 34774.2 hPa WSW 9 km/h 9 km/h 19 % 0 mm
18:14 -13.2 °C -25.6 °C 34774.2 hPa SW 6 km/h 6 km/h 19 % 0 mm
18:19 -13.2 °C -25.6 °C 34774.2 hPa West 14.5 km/h 14.5 km/h 19 % 0 mm
18:24 -13.3 °C -25.7 °C 34774.2 hPa SW 9.3 km/h 9.8 km/h 19 % 0 mm
18:29 -13.3 °C -26.1 °C 34774.2 hPa WSW 9 km/h 9 km/h 18 % 0 mm
18:34 -13.4 °C -25.8 °C 34774.2 hPa West 6.3 km/h 6.3 km/h 19 % 0 mm
18:44 -13.5 °C -25.8 °C 34740.4 hPa West 11.1 km/h 11.1 km/h 19 % 0 mm
18:49 -13.6 °C -25.9 °C 34740.4 hPa WSW 6.3 km/h 6.3 km/h 19 % 0 mm
18:54 -13.6 °C -25.9 °C 34774.2 hPa West 9 km/h 9 km/h 19 % 0 mm
18:59 -13.7 °C -26 °C 34774.2 hPa WSW 6.3 km/h 6.3 km/h 19 % 0 mm
19:04 -13.8 °C -26.1 °C 34774.2 hPa SW 6.3 km/h 6.3 km/h 19 % 0 mm
19:09 -14.1 °C -26.3 °C 34774.2 hPa WSW 9 km/h 9 km/h 19 % 0 mm
19:14 -14.1 °C -25.9 °C 34774.2 hPa WSW 8 km/h 8 km/h 20 % 0 mm
19:19 -14.1 °C -26 °C 34774.2 hPa WSW 6.3 km/h 6.3 km/h 20 % 0 mm
19:24 -14.1 °C -25.9 °C 34774.2 hPa WSW 6 km/h 6 km/h 20 % 0 mm
19:29 -14.1 °C -25.9 °C 34774.2 hPa WSW 6 km/h 6 km/h 20 % 0 mm
19:34 -14.1 °C -25.9 °C 34774.2 hPa WSW 6 km/h 6 km/h 20 % 0 mm
19:39 -14.1 °C -25.9 °C 34774.2 hPa WSW 6 km/h 6 km/h 20 % 0 mm
19:44 -14.1 °C -26 °C 34774.2 hPa West 3.1 km/h   20 % 0 mm
19:49 -14.2 °C -26.1 °C 34774.2 hPa West 4.2 km/h   20 % 0 mm
19:54 -14.2 °C -26.1 °C 34774.2 hPa Calm     20 % 0 mm
19:59 -14.3 °C -26.2 °C 34774.2 hPa WSW 5.1 km/h   20 % 0 mm
20:04 -14.2 °C -26.1 °C 34774.2 hPa West 6 km/h 6 km/h 20 % 0 mm
20:09 -14.2 °C -26.1 °C 34774.2 hPa WSW 6 km/h 6 km/h 20 % 0 mm
20:14 -14.2 °C -25.8 °C 34774.2 hPa West 6.3 km/h   21 % 0 mm
20:19 -14.2 °C -25.7 °C 34774.2 hPa SW 6.3 km/h 6.3 km/h 21 % 0 mm
20:24 -14.2 °C -25.7 °C 34774.2 hPa WSW 9 km/h 9 km/h 21 % 0 mm
20:29 -14.2 °C -25.8 °C 34774.2 hPa North 3.1 km/h 3.1 km/h 21 % 0 mm
20:34 -14.3 °C -25.5 °C 34774.2 hPa WSW 6 km/h 6 km/h 22 % 0 mm
20:39 -14.3 °C -25.6 °C 34774.2 hPa WNW 6 km/h 6 km/h 22 % 0 mm
20:44 -14.4 °C -25.6 °C 34774.2 hPa North 6 km/h 6 km/h 22 % 0 mm
20:54 -14.6 °C -25.7 °C 34808.1 hPa Calm     22 % 0 mm
20:59 -14.7 °C -25.8 °C 34808.1 hPa SW 3.1 km/h   22 % 0 mm
21:04 -14.7 °C -25.9 °C 34808.1 hPa WSW 4.2 km/h 4.2 km/h 22 % 0 mm
21:09 -14.8 °C -25.6 °C 34774.2 hPa Calm     23 % 0 mm
21:14 -14.8 °C -25.7 °C 34774.2 hPa SW 6.3 km/h 6.3 km/h 23 % 0 mm
21:24 -14.8 °C -25.7 °C 34808.1 hPa SW 7.6 km/h 7.6 km/h 23 % 0 mm
21:29 -14.8 °C -25.7 °C 34808.1 hPa West 8.5 km/h 8.5 km/h 23 % 0 mm
21:34 -14.9 °C -25.4 °C 34808.1 hPa WSW 9 km/h 9 km/h 24 % 0 mm
21:39 -14.9 °C -25.4 °C 34808.1 hPa WSW 6 km/h 6 km/h 24 % 0 mm
21:44 -15.1 °C -25.6 °C 34808.1 hPa SSW 6.3 km/h 6.3 km/h 24 % 0 mm
21:49 -15.3 °C -25.8 °C 34808.1 hPa WSW 9 km/h 9 km/h 24 % 0 mm
21:54 -15.3 °C -25.5 °C 34808.1 hPa SW 8 km/h 8 km/h 25 % 0 mm
21:59 -15.3 °C -25.5 °C 34808.1 hPa WSW 6 km/h 6 km/h 25 % 0 mm
22:04 -15.3 °C -25.5 °C 34808.1 hPa WSW 3.1 km/h   25 % 0 mm
22:09 -15.3 °C -25.3 °C 34808.1 hPa SW 6 km/h 6 km/h 26 % 0 mm
22:14 -15.3 °C -25.3 °C 34808.1 hPa WSW 4.2 km/h 4.2 km/h 26 % 0 mm
22:19 -15.3 °C -24.9 °C 34808.1 hPa SW 6 km/h 6 km/h 27 % 0 mm
22:24 -15.3 °C -24.9 °C 34808.1 hPa SW 9 km/h 9 km/h 27 % 0 mm
22:29 -15.4 °C -25.1 °C 34808.1 hPa SW 3.1 km/h 3.1 km/h 27 % 0 mm
22:34 -15.3 °C -24.8 °C 34808.1 hPa WSW 9.8 km/h 9.8 km/h 28 % 0 mm
22:39 -15.4 °C -24.6 °C 34808.1 hPa WSW 9 km/h 9 km/h 29 % 0 mm
22:44 -15.4 °C -24.6 °C 34808.1 hPa WSW 6.8 km/h 6.8 km/h 29 % 0 mm
22:54 -15.4 °C -24.3 °C 34808.1 hPa SW 8 km/h 8 km/h 30 % 0 mm
22:59 -15.6 °C -24.5 °C 34808.1 hPa SSW 9 km/h 9 km/h 30 % 0 mm
23:04 -15.8 °C -24.7 °C 34808.1 hPa WSW 11.9 km/h 11.9 km/h 30 % 0 mm
23:09 -15.8 °C -24.7 °C 34808.1 hPa NNW 3.7 km/h 4.2 km/h 30 % 0 mm
23:14 -15.8 °C -24.4 °C 34808.1 hPa WSW 6 km/h   31 % 0 mm
23:19 -15.8 °C -24.4 °C 34808.1 hPa WSW 9 km/h 9 km/h 31 % 0 mm
23:24 -15.8 °C -24.4 °C 34808.1 hPa SW 6 km/h 6 km/h 31 % 0 mm
Meteo Sesrovires
Elogis d' Weather Underground - 1.25 mb

Guio original per  Jim McMurry - jmcmurry@mwt.net Adaptat per a la plantilla per  Wim van der Kuil - Leuven-Template.eu

Trobareu la nostra informacio del temps tambe a:

Weather Underground

AWEKAS